Bell M. Shimada — WTED — position and weather

sailwx.info

Track history (hours):
 
Tides and Currents Weather Stations Pressure Air Temp Water Temp Dewpoint Dewpoint Depression Visibility Wind Speed Wind Dir Waves Ship Positions

Oceanographic research ship Bell M. Shimada (USA)

Last reported at 2017-Jun-23 14:00 UTC. Time now 2017-Jun-24 05:19 UTC.
Position N 42°23' W 124°55'.

Length 58 m; draft 6.1 m.

Type: Other ship. MMSI: 369970147.

Date/timePositionNaut miles runAvg speedWind from/ knotsBaromVisibWave heightAir tempDewpointWater temp
2017-Jun-23 14:00N 42°23' W 124°55'612.3
2017-Jun-23 13:31N 42°30' W 124°55'612.8
2017-Jun-23 13:00N 42°36' W 124°55'612.8
2017-Jun-23 12:30N 42°42' W 124°56'612.5
2017-Jun-23 12:00N 42°49' W 124°56'612.5
2017-Jun-23 11:29N 42°55' W 124°54'1012.2
2017-Jun-23 10:40N 43°05' W 124°52'212.2
2017-Jun-23 10:30N 43°07' W 124°52'612.1
2017-Jun-23 10:01N 43°13' W 124°51'812.1
2017-Jun-23 09:22N 43°20' W 124°49'1712.3
2017-Jun-23 08:01N 43°37' W 124°46'012.3
2017-Jun-23 07:59N 43°37' W 124°46'912.0
2017-Jun-23 07:13N 43°47' W 124°44'212.1
2017-Jun-23 07:00N 43°49' W 124°44'612.0
2017-Jun-23 06:30N 43°55' W 124°43'612.3
2017-Jun-23 06:00N 44°01' W 124°40'510.7
2017-Jun-23 05:31N 44°05' W 124°36'611.9
2017-Jun-23 05:00N 44°11' W 124°32'612.6
2017-Jun-23 04:31N 44°16' W 124°28'713.2
2017-Jun-23 04:01N 44°22' W 124°24'712.9
2017-Jun-23 03:28N 44°28' W 124°19'4 9.2
2017-Jun-23 02:59N 44°31' W 124°14'510.2
2017-Jun-23 02:29N 44°35' W 124°09'4 9.0
2017-Jun-23 02:00N 44°37' W 124°04'1 0.1
2017-Jun-22 14:19N 44°38' W 124°03'0 0.0
2017-Jun-22 06:13N 44°38' W 124°03'0 0.0
2017-Jun-22 05:58N 44°38' W 124°03'0 0.0
2017-Jun-22 05:10N 44°38' W 124°03'0 0.0
2017-Jun-22 04:58N 44°38' W 124°03'0 0.0
2017-Jun-22 04:10N 44°38' W 124°03'0 0.0
2017-Jun-22 03:49N 44°38' W 124°03'0 0.0
2017-Jun-22 03:22N 44°38' W 124°03'0 0.0
2017-Jun-21 16:31N 44°38' W 124°03'0 0.0
2017-Jun-21 14:04N 44°38' W 124°03'0 0.0
2017-Jun-21 13:28N 44°38' W 124°03'0 0.0
2017-Jun-21 12:55N 44°38' W 124°03'0 0.0
2017-Jun-21 12:19N 44°38' W 124°03'0 0.0
2017-Jun-21 11:46N 44°38' W 124°03'0 0.0
2017-Jun-21 11:28N 44°38' W 124°03'0 0.0
2017-Jun-21 06:43N 44°38' W 124°03'0 0.0
2017-Jun-21 02:28N 44°38' W 124°03'0 0.0
2017-Jun-21 01:52N 44°38' W 124°03'0 0.0
2017-Jun-21 01:28N 44°38' W 124°03'0 0.0
2017-Jun-20 23:58N 44°38' W 124°03'0 0.0
2017-Jun-20 23:22N 44°38' W 124°03'0 0.0
2017-Jun-20 21:31N 44°38' W 124°03'0 0.0
2017-Jun-20 21:22N 44°38' W 124°03'0 0.0
2017-Jun-20 20:34N 44°38' W 124°03'0 0.0
2017-Jun-20 20:10N 44°38' W 124°03'0 0.0
2017-Jun-20 19:58N 44°38' W 124°03'0 0.0
2017-Jun-20 19:28N 44°38' W 124°03'0 0.0
2017-Jun-20 18:31N 44°38' W 124°03'0 0.0
2017-Jun-20 18:22N 44°38' W 124°03'0 0.0
2017-Jun-20 17:43N 44°38' W 124°03'0 0.0
2017-Jun-20 17:29N 44°38' W 124°03'2 5.1
2017-Jun-20 17:01N 44°36' W 124°06'2 5.0
2017-Jun-20 16:31N 44°36' W 124°09'0 0.9
2017-Jun-20 16:00N 44°37' W 124°09'1 1.1
2017-Jun-20 15:30N 44°37' W 124°09'1 1.1
2017-Jun-20 15:00N 44°38' W 124°09'1 1.0
2017-Jun-20 14:30N 44°38' W 124°09'2 1.7
2017-Jun-20 13:30N 44°38' W 124°12'2 4.0
2017-Jun-20 13:00N 44°39' W 124°14'2 4.0
2017-Jun-20 12:30N 44°39' W 124°17'2 4.2
2017-Jun-20 12:01N 44°40' W 124°20'2 4.3
2017-Jun-20 11:27N 44°41' W 124°23'2 4.5
2017-Jun-20 11:01N 44°40' W 124°26'0 0.7
2017-Jun-20 10:30N 44°40' W 124°26'0 0.1
2017-Jun-20 10:00N 44°40' W 124°26'0 0.1
2017-Jun-20 09:29N 44°40' W 124°26'0 0.0
2017-Jun-20 09:01N 44°40' W 124°26'0 0.0
2017-Jun-20 08:30N 44°40' W 124°26'0 0.0
2017-Jun-20 08:00N 44°40' W 124°26'0 0.1
2017-Jun-20 07:30N 44°40' W 124°26'0 0.0
2017-Jun-20 07:01N 44°40' W 124°26'0 0.0
2017-Jun-20 06:30N 44°40' W 124°26'1 0.8
2017-Jun-20 05:12N 44°40' W 124°25'0 0.8
2017-Jun-20 04:58N 44°41' W 124°25'1 0.8
2017-Jun-20 03:46N 44°41' W 124°24'0 0.8
2017-Jun-20 03:22N 44°42' W 124°24'1 1.0
2017-Jun-20 02:27N 44°42' W 124°23'1 1.2
2017-Jun-20 01:58N 44°42' W 124°22'1 1.2
2017-Jun-20 01:23N 44°42' W 124°21'0 1.1
2017-Jun-20 01:00N 44°43' W 124°20'4 4.1
2017-Jun-20 00:05N 44°40' W 124°16'110.7
2017-Jun-20 00:00N 44°40' W 124°15'510.0
2017-Jun-19 23:30N 44°37' W 124°09'4 7.2
2017-Jun-19 23:01N 44°37' W 124°04'1 1.0
2017-Jun-19 21:47N 44°38' W 124°03'0 0.0
2017-Jun-19 16:47N 44°38' W 124°03'0 0.0
2017-Jun-19 16:23N 44°38' W 124°03'0 0.0
2017-Jun-19 15:59N 44°38' W 124°03'0 0.0
2017-Jun-19 12:26N 44°38' W 124°03'0 0.0
2017-Jun-19 11:47N 44°38' W 124°03'0 0.0
2017-Jun-19 11:17N 44°38' W 124°03'0 0.0
2017-Jun-19 10:53N 44°38' W 124°03'0 0.0
2017-Jun-19 10:20N 44°38' W 124°03'0 0.0
2017-Jun-19 09:47N 44°38' W 124°03'0 0.0
2017-Jun-19 04:47N 44°38' W 124°03'0 0.0
2017-Jun-19 04:23N 44°38' W 124°03'0 0.0
2017-Jun-19 03:47N 44°38' W 124°03'0 0.0
2017-Jun-19 01:29N 44°38' W 124°03'0 0.0
2017-Jun-19 00:35N 44°38' W 124°03'0 0.0
2017-Jun-18 22:41N 44°38' W 124°03'0 0.0
2017-Jun-18 22:23N 44°38' W 124°03'0 0.0
2017-Jun-18 21:53N 44°38' W 124°03'0 0.0
2017-Jun-18 21:23N 44°38' W 124°03'0 0.0
2017-Jun-18 20:59N 44°38' W 124°03'0 0.0
2017-Jun-18 09:08N 44°38' W 124°03'0 0.0
2017-Jun-18 08:59N 44°38' W 124°03'0 0.0
2017-Jun-18 07:44N 44°38' W 124°03'0 0.0
2017-Jun-18 07:17N 44°38' W 124°03'0 0.0
2017-Jun-18 06:53N 44°38' W 124°03'0 0.0
2017-Jun-18 03:05N 44°38' W 124°03'0 0.0
2017-Jun-18 01:05N 44°38' W 124°03'0 0.0
2017-Jun-18 00:53N 44°38' W 124°03'0 0.0
2017-Jun-18 00:14N 44°38' W 124°03'0 0.0
2017-Jun-17 23:53N 44°38' W 124°03'0 0.0
2017-Jun-17 22:44N 44°38' W 124°03'0 0.0
2017-Jun-17 20:44N 44°38' W 124°03'0 0.0
2017-Jun-17 20:20N 44°38' W 124°03'0 0.0
2017-Jun-17 19:29N 44°38' W 124°03'0 0.0
2017-Jun-17 19:00N 44°38' W 124°03'0 0.0
2017-Jun-17 12:47N 44°38' W 124°03'0 0.0
2017-Jun-17 10:20N 44°38' W 124°03'0 0.0
2017-Jun-17 09:56N 44°38' W 124°03'0 0.0
2017-Jun-17 09:18N 44°38' W 124°03'0 0.0
2017-Jun-17 08:17N 44°38' W 124°03'0 0.0
2017-Jun-17 07:59N 44°38' W 124°03'0 0.0
2017-Jun-17 07:29N 44°38' W 124°03'0 0.0
2017-Jun-17 03:56N 44°38' W 124°03'0 0.0
2017-Jun-17 03:23N 44°38' W 124°03'0 0.0
2017-Jun-17 02:23N 44°38' W 124°03'0 0.0
2017-Jun-17 01:53N 44°38' W 124°03'0 0.0
2017-Jun-17 00:23N 44°38' W 124°03'0 0.0
2017-Jun-16 23:50N 44°38' W 124°03'0 0.0
2017-Jun-16 23:29N 44°38' W 124°03'0 0.0
2017-Jun-16 22:56N 44°38' W 124°03'0 0.0
2017-Jun-16 22:29N 44°38' W 124°03'0 0.0
2017-Jun-16 21:41N 44°38' W 124°03'0 0.0
2017-Jun-16 21:26N 44°38' W 124°03'0 0.0
2017-Jun-16 20:59N 44°38' W 124°03'0 0.0
2017-Jun-16 19:50N 44°38' W 124°03'0 0.0
2017-Jun-16 19:20N 44°38' W 124°03'0 0.0
2017-Jun-16 18:52N 44°38' W 124°03'0 0.0
2017-Jun-16 18:29N 44°38' W 124°03'0 0.0
2017-Jun-16 17:59N 44°38' W 124°03'0 0.0
2017-Jun-16 17:23N 44°38' W 124°03'0 0.0
2017-Jun-16 16:50N 44°38' W 124°03'0 0.0
2017-Jun-16 16:29N 44°38' W 124°03'0 0.0
2017-Jun-16 15:53N 44°38' W 124°03'0 0.0
2017-Jun-16 14:59N 44°38' W 124°03'0 0.0
2017-Jun-16 13:59N 44°38' W 124°03'0 0.0
2017-Jun-16 13:23N 44°38' W 124°03'0 0.0
2017-Jun-16 12:53N 44°38' W 124°03'0 0.0
2017-Jun-16 12:23N 44°38' W 124°03'0 0.0
2017-Jun-16 11:59N 44°38' W 124°03'0 0.0
2017-Jun-16 11:29N 44°38' W 124°03'0 0.0
2017-Jun-16 10:59N 44°38' W 124°03'0 0.0
2017-Jun-16 10:28N 44°38' W 124°03'0 0.0
2017-Jun-16 09:59N 44°38' W 124°03'0 0.0
2017-Jun-16 09:29N 44°38' W 124°03'0 0.0
2017-Jun-16 08:59N 44°38' W 124°03'0 0.0
2017-Jun-16 08:25N 44°38' W 124°03'0 0.0
2017-Jun-16 07:35N 44°38' W 124°03'0 0.0
2017-Jun-16 07:26N 44°38' W 124°03'0 0.0
2017-Jun-16 06:59N 44°38' W 124°03'0 0.0
2017-Jun-16 06:28N 44°38' W 124°03'0 0.0
2017-Jun-16 05:47N 44°38' W 124°03'0 0.0
2017-Jun-16 05:28N 44°38' W 124°03'0 0.0
2017-Jun-16 04:55N 44°38' W 124°03'0 0.0
2017-Jun-16 04:23N 44°38' W 124°03'0 0.0
2017-Jun-16 03:53N 44°38' W 124°03'0 0.0
2017-Jun-16 03:23N 44°38' W 124°03'0 0.0
2017-Jun-16 02:59N 44°38' W 124°03'0 0.0
2017-Jun-16 02:17N 44°38' W 124°03'0 0.0
2017-Jun-16 01:55N 44°38' W 124°03'0 0.0
2017-Jun-16 01:25N 44°38' W 124°03'0 0.0
2017-Jun-16 00:58N 44°38' W 124°03'0 0.0
2017-Jun-16 00:22N 44°38' W 124°03'0 0.0
2017-Jun-15 23:55N 44°38' W 124°03'0 0.0
2017-Jun-15 21:52N 44°38' W 124°03'0 0.0
2017-Jun-15 21:16N 44°38' W 124°03'0 0.0
2017-Jun-15 20:53N 44°38' W 124°03'0 0.0
2017-Jun-15 20:25N 44°38' W 124°03'0 0.0
2017-Jun-15 19:58N 44°38' W 124°03'0 0.0
2017-Jun-15 19:28N 44°38' W 124°03'0 0.0
2017-Jun-15 18:58N 44°38' W 124°03'0 0.0
2017-Jun-15 18:26N 44°38' W 124°03'0 0.0
2017-Jun-15 16:13N 44°38' W 124°03'0 0.0
2017-Jun-15 15:53N 44°38' W 124°03'0 0.0
2017-Jun-15 06:58N 44°38' W 124°03'0 0.0
2017-Jun-14 10:22N 44°38' W 124°03'0 0.0
2017-Jun-14 03:53N 44°38' W 124°03'  
Track history (hours):
 
Tides and Currents Weather Stations Pressure Air Temp Water Temp Dewpoint Dewpoint Depression Visibility Wind Speed Wind Dir Waves Ship Positions

Oceanographic research ship Bell M. Shimada (USA)

Last reported at 2017-Jun-23 14:00 UTC. Time now 2017-Jun-24 05:19 UTC.
Position N 42°23' W 124°55'.

Length 58 m; draft 6.1 m.

Type: Other ship. MMSI: 369970147.

Date/timePositionNaut miles runAvg speedWind from/ knotsBaromVisibWave heightAir tempDewpointWater temp
2017-Jun-23 14:00N 42°23' W 124°55'612.3
2017-Jun-23 13:31N 42°30' W 124°55'612.8
2017-Jun-23 13:00N 42°36' W 124°55'612.8
2017-Jun-23 12:30N 42°42' W 124°56'612.5
2017-Jun-23 12:00N 42°49' W 124°56'612.5
2017-Jun-23 11:29N 42°55' W 124°54'1012.2
2017-Jun-23 10:40N 43°05' W 124°52'212.2
2017-Jun-23 10:30N 43°07' W 124°52'612.1
2017-Jun-23 10:01N 43°13' W 124°51'812.1
2017-Jun-23 09:22N 43°20' W 124°49'1712.3
2017-Jun-23 08:01N 43°37' W 124°46'012.3
2017-Jun-23 07:59N 43°37' W 124°46'912.0
2017-Jun-23 07:13N 43°47' W 124°44'212.1
2017-Jun-23 07:00N 43°49' W 124°44'612.0
2017-Jun-23 06:30N 43°55' W 124°43'612.3
2017-Jun-23 06:00N 44°01' W 124°40'510.7
2017-Jun-23 05:31N 44°05' W 124°36'611.9
2017-Jun-23 05:00N 44°11' W 124°32'612.6
2017-Jun-23 04:31N 44°16' W 124°28'713.2
2017-Jun-23 04:01N 44°22' W 124°24'712.9
2017-Jun-23 03:28N 44°28' W 124°19'4 9.2
2017-Jun-23 02:59N 44°31' W 124°14'510.2
2017-Jun-23 02:29N 44°35' W 124°09'4 9.0
2017-Jun-23 02:00N 44°37' W 124°04'1 0.1
2017-Jun-22 14:19N 44°38' W 124°03'0 0.0
2017-Jun-22 06:13N 44°38' W 124°03'0 0.0
2017-Jun-22 05:58N 44°38' W 124°03'0 0.0
2017-Jun-22 05:10N 44°38' W 124°03'0 0.0
2017-Jun-22 04:58N 44°38' W 124°03'0 0.0
2017-Jun-22 04:10N 44°38' W 124°03'0 0.0
2017-Jun-22 03:49N 44°38' W 124°03'0 0.0
2017-Jun-22 03:22N 44°38' W 124°03'0 0.0
2017-Jun-21 16:31N 44°38' W 124°03'0 0.0
2017-Jun-21 14:04N 44°38' W 124°03'0 0.0
2017-Jun-21 13:28N 44°38' W 124°03'0 0.0
2017-Jun-21 12:55N 44°38' W 124°03'0 0.0
2017-Jun-21 12:19N 44°38' W 124°03'0 0.0
2017-Jun-21 11:46N 44°38' W 124°03'0 0.0
2017-Jun-21 11:28N 44°38' W 124°03'0 0.0
2017-Jun-21 06:43N 44°38' W 124°03'0 0.0
2017-Jun-21 02:28N 44°38' W 124°03'0 0.0
2017-Jun-21 01:52N 44°38' W 124°03'0 0.0
2017-Jun-21 01:28N 44°38' W 124°03'0 0.0
2017-Jun-20 23:58N 44°38' W 124°03'0 0.0
2017-Jun-20 23:22N 44°38' W 124°03'0 0.0
2017-Jun-20 21:31N 44°38' W 124°03'0 0.0
2017-Jun-20 21:22N 44°38' W 124°03'0 0.0
2017-Jun-20 20:34N 44°38' W 124°03'0 0.0
2017-Jun-20 20:10N 44°38' W 124°03'0 0.0
2017-Jun-20 19:58N 44°38' W 124°03'0 0.0
2017-Jun-20 19:28N 44°38' W 124°03'0 0.0
2017-Jun-20 18:31N 44°38' W 124°03'0 0.0
2017-Jun-20 18:22N 44°38' W 124°03'0 0.0
2017-Jun-20 17:43N 44°38' W 124°03'0 0.0
2017-Jun-20 17:29N 44°38' W 124°03'2 5.1
2017-Jun-20 17:01N 44°36' W 124°06'2 5.0
2017-Jun-20 16:31N 44°36' W 124°09'0 0.9
2017-Jun-20 16:00N 44°37' W 124°09'1 1.1
2017-Jun-20 15:30N 44°37' W 124°09'1 1.1
2017-Jun-20 15:00N 44°38' W 124°09'1 1.0
2017-Jun-20 14:30N 44°38' W 124°09'2 1.7
2017-Jun-20 13:30N 44°38' W 124°12'2 4.0
2017-Jun-20 13:00N 44°39' W 124°14'2 4.0
2017-Jun-20 12:30N 44°39' W 124°17'2 4.2
2017-Jun-20 12:01N 44°40' W 124°20'2 4.3
2017-Jun-20 11:27N 44°41' W 124°23'2 4.5
2017-Jun-20 11:01N 44°40' W 124°26'0 0.7
2017-Jun-20 10:30N 44°40' W 124°26'0 0.1
2017-Jun-20 10:00N 44°40' W 124°26'0 0.1
2017-Jun-20 09:29N 44°40' W 124°26'0 0.0
2017-Jun-20 09:01N 44°40' W 124°26'0 0.0
2017-Jun-20 08:30N 44°40' W 124°26'0 0.0
2017-Jun-20 08:00N 44°40' W 124°26'0 0.1
2017-Jun-20 07:30N 44°40' W 124°26'0 0.0
2017-Jun-20 07:01N 44°40' W 124°26'0 0.0
2017-Jun-20 06:30N 44°40' W 124°26'1 0.8
2017-Jun-20 05:12N 44°40' W 124°25'0 0.8
2017-Jun-20 04:58N 44°41' W 124°25'1 0.8
2017-Jun-20 03:46N 44°41' W 124°24'0 0.8
2017-Jun-20 03:22N 44°42' W 124°24'1 1.0
2017-Jun-20 02:27N 44°42' W 124°23'1 1.2
2017-Jun-20 01:58N 44°42' W 124°22'1 1.2
2017-Jun-20 01:23N 44°42' W 124°21'0 1.1
2017-Jun-20 01:00N 44°43' W 124°20'4 4.1
2017-Jun-20 00:05N 44°40' W 124°16'110.7
2017-Jun-20 00:00N 44°40' W 124°15'510.0
2017-Jun-19 23:30N 44°37' W 124°09'4 7.2
2017-Jun-19 23:01N 44°37' W 124°04'1 1.0
2017-Jun-19 21:47N 44°38' W 124°03'0 0.0
2017-Jun-19 16:47N 44°38' W 124°03'0 0.0
2017-Jun-19 16:23N 44°38' W 124°03'0 0.0
2017-Jun-19 15:59N 44°38' W 124°03'0 0.0
2017-Jun-19 12:26N 44°38' W 124°03'0 0.0
2017-Jun-19 11:47N 44°38' W 124°03'0 0.0
2017-Jun-19 11:17N 44°38' W 124°03'0 0.0
2017-Jun-19 10:53N 44°38' W 124°03'0 0.0
2017-Jun-19 10:20N 44°38' W 124°03'0 0.0
2017-Jun-19 09:47N 44°38' W 124°03'0 0.0
2017-Jun-19 04:47N 44°38' W 124°03'0 0.0
2017-Jun-19 04:23N 44°38' W 124°03'0 0.0
2017-Jun-19 03:47N 44°38' W 124°03'0 0.0
2017-Jun-19 01:29N 44°38' W 124°03'0 0.0
2017-Jun-19 00:35N 44°38' W 124°03'0 0.0
2017-Jun-18 22:41N 44°38' W 124°03'0 0.0
2017-Jun-18 22:23N 44°38' W 124°03'0 0.0
2017-Jun-18 21:53N 44°38' W 124°03'0 0.0
2017-Jun-18 21:23N 44°38' W 124°03'0 0.0
2017-Jun-18 20:59N 44°38' W 124°03'0 0.0
2017-Jun-18 09:08N 44°38' W 124°03'0 0.0
2017-Jun-18 08:59N 44°38' W 124°03'0 0.0
2017-Jun-18 07:44N 44°38' W 124°03'0 0.0
2017-Jun-18 07:17N 44°38' W 124°03'0 0.0
2017-Jun-18 06:53N 44°38' W 124°03'0 0.0
2017-Jun-18 03:05N 44°38' W 124°03'0 0.0
2017-Jun-18 01:05N 44°38' W 124°03'0 0.0
2017-Jun-18 00:53N 44°38' W 124°03'0 0.0
2017-Jun-18 00:14N 44°38' W 124°03'0 0.0
2017-Jun-17 23:53N 44°38' W 124°03'0 0.0
2017-Jun-17 22:44N 44°38' W 124°03'0 0.0
2017-Jun-17 20:44N 44°38' W 124°03'0 0.0
2017-Jun-17 20:20N 44°38' W 124°03'0 0.0
2017-Jun-17 19:29N 44°38' W 124°03'0 0.0
2017-Jun-17 19:00N 44°38' W 124°03'0 0.0
2017-Jun-17 12:47N 44°38' W 124°03'0 0.0
2017-Jun-17 10:20N 44°38' W 124°03'0 0.0
2017-Jun-17 09:56N 44°38' W 124°03'0 0.0
2017-Jun-17 09:18N 44°38' W 124°03'0 0.0
2017-Jun-17 08:17N 44°38' W 124°03'0 0.0
2017-Jun-17 07:59N 44°38' W 124°03'0 0.0
2017-Jun-17 07:29N 44°38' W 124°03'0 0.0
2017-Jun-17 03:56N 44°38' W 124°03'0 0.0
2017-Jun-17 03:23N 44°38' W 124°03'0 0.0
2017-Jun-17 02:23N 44°38' W 124°03'0 0.0
2017-Jun-17 01:53N 44°38' W 124°03'0 0.0
2017-Jun-17 00:23N 44°38' W 124°03'0 0.0
2017-Jun-16 23:50N 44°38' W 124°03'0 0.0
2017-Jun-16 23:29N 44°38' W 124°03'0 0.0
2017-Jun-16 22:56N 44°38' W 124°03'0 0.0
2017-Jun-16 22:29N 44°38' W 124°03'0 0.0
2017-Jun-16 21:41N 44°38' W 124°03'0 0.0
2017-Jun-16 21:26N 44°38' W 124°03'0 0.0
2017-Jun-16 20:59N 44°38' W 124°03'0 0.0
2017-Jun-16 19:50N 44°38' W 124°03'0 0.0
2017-Jun-16 19:20N 44°38' W 124°03'0 0.0
2017-Jun-16 18:52N 44°38' W 124°03'0 0.0
2017-Jun-16 18:29N 44°38' W 124°03'0 0.0
2017-Jun-16 17:59N 44°38' W 124°03'0 0.0
2017-Jun-16 17:23N 44°38' W 124°03'0 0.0
2017-Jun-16 16:50N 44°38' W 124°03'0 0.0
2017-Jun-16 16:29N 44°38' W 124°03'0 0.0
2017-Jun-16 15:53N 44°38' W 124°03'0 0.0
2017-Jun-16 14:59N 44°38' W 124°03'0 0.0
2017-Jun-16 13:59N 44°38' W 124°03'0 0.0
2017-Jun-16 13:23N 44°38' W 124°03'0 0.0
2017-Jun-16 12:53N 44°38' W 124°03'0 0.0
2017-Jun-16 12:23N 44°38' W 124°03'0 0.0
2017-Jun-16 11:59N 44°38' W 124°03'0 0.0
2017-Jun-16 11:29N 44°38' W 124°03'0 0.0
2017-Jun-16 10:59N 44°38' W 124°03'0 0.0
2017-Jun-16 10:28N 44°38' W 124°03'0 0.0
2017-Jun-16 09:59N 44°38' W 124°03'0 0.0
2017-Jun-16 09:29N 44°38' W 124°03'0 0.0
2017-Jun-16 08:59N 44°38' W 124°03'0 0.0
2017-Jun-16 08:25N 44°38' W 124°03'0 0.0
2017-Jun-16 07:35N 44°38' W 124°03'0 0.0
2017-Jun-16 07:26N 44°38' W 124°03'0 0.0
2017-Jun-16 06:59N 44°38' W 124°03'0 0.0
2017-Jun-16 06:28N 44°38' W 124°03'0 0.0
2017-Jun-16 05:47N 44°38' W 124°03'0 0.0
2017-Jun-16 05:28N 44°38' W 124°03'0 0.0
2017-Jun-16 04:55N 44°38' W 124°03'0 0.0
2017-Jun-16 04:23N 44°38' W 124°03'0 0.0
2017-Jun-16 03:53N 44°38' W 124°03'0 0.0
2017-Jun-16 03:23N 44°38' W 124°03'0 0.0
2017-Jun-16 02:59N 44°38' W 124°03'0 0.0
2017-Jun-16 02:17N 44°38' W 124°03'0 0.0
2017-Jun-16 01:55N 44°38' W 124°03'0 0.0
2017-Jun-16 01:25N 44°38' W 124°03'0 0.0
2017-Jun-16 00:58N 44°38' W 124°03'0 0.0
2017-Jun-16 00:22N 44°38' W 124°03'0 0.0
2017-Jun-15 23:55N 44°38' W 124°03'0 0.0
2017-Jun-15 21:52N 44°38' W 124°03'0 0.0
2017-Jun-15 21:16N 44°38' W 124°03'0 0.0
2017-Jun-15 20:53N 44°38' W 124°03'0 0.0
2017-Jun-15 20:25N 44°38' W 124°03'0 0.0
2017-Jun-15 19:58N 44°38' W 124°03'0 0.0
2017-Jun-15 19:28N 44°38' W 124°03'0 0.0
2017-Jun-15 18:58N 44°38' W 124°03'0 0.0
2017-Jun-15 18:26N 44°38' W 124°03'0 0.0
2017-Jun-15 16:13N 44°38' W 124°03'0 0.0
2017-Jun-15 15:53N 44°38' W 124°03'0 0.0
2017-Jun-15 06:58N 44°38' W 124°03'0 0.0
2017-Jun-14 10:22N 44°38' W 124°03'0 0.0
2017-Jun-14 03:53N 44°38' W 124°03'  

Dump ship's entire track history